Time,TemperatureF,DewpointF,PressureIn,WindDirection,WindDirectionDegrees,WindSpeedMPH,WindSpeedGustMPH,Humidity,HourlyPrecipIn,Conditions,Clouds,dailyrainin,SolarRadiationWatts/m^2,SoftwareType,DateUTC
2013-02-09 00:00:00,26.3,23.8,30.27,SSE,155,10.0,12.0,90,0.00,,,0.00,0,Wunderground v.1.15,2013-02-09 06:00:00,
2013-02-09 00:10:00,26.4,23.9,30.28,SSE,155,8.0,12.0,90,0.00,,,0.00,0,Wunderground v.1.15,2013-02-09 06:10:00,
2013-02-09 00:20:00,26.3,23.8,30.28,SSE,163,9.0,9.0,90,0.00,,,0.00,0,Wunderground v.1.15,2013-02-09 06:20:00,
2013-02-09 00:30:00,26.2,23.7,30.28,SSE,163,8.0,8.0,90,0.00,,,0.00,0,Wunderground v.1.15,2013-02-09 06:30:00,
2013-02-09 00:40:00,26.2,23.7,30.28,SE,146,10.0,10.0,90,0.00,,,0.00,0,Wunderground v.1.15,2013-02-09 06:40:00,
2013-02-09 00:50:00,26.2,23.4,30.28,SSE,155,9.0,10.0,89,0.00,,,0.00,0,Wunderground v.1.15,2013-02-09 06:50:00,
2013-02-09 01:00:00,26.1,23.6,30.27,South,171,9.0,9.0,90,0.00,,,0.00,0,Wunderground v.1.15,2013-02-09 07:00:00,
2013-02-09 01:10:00,26.1,23.6,30.27,SSE,165,9.0,9.0,90,0.00,,,0.00,0,Wunderground v.1.15,2013-02-09 07:10:00,
2013-02-09 01:20:00,26.2,23.4,30.26,SE,142,10.0,10.0,89,0.00,,,0.00,0,Wunderground v.1.15,2013-02-09 07:20:00,
2013-02-09 01:40:00,26.4,23.9,30.26,South,169,10.0,11.0,90,0.00,,,0.00,0,Wunderground v.1.15,2013-02-09 07:40:00,
2013-02-09 01:50:00,26.4,23.9,30.26,SSE,158,9.0,9.0,90,0.00,,,0.00,0,Wunderground v.1.15,2013-02-09 07:50:00,
2013-02-09 02:00:00,26.4,23.9,30.26,SSE,147,11.0,15.0,90,0.00,,,0.00,0,Wunderground v.1.15,2013-02-09 08:00:00,
2013-02-09 02:10:00,-999.9,-99.9,30.26,SE,146,9.0,9.0,255,-99.99,,,0.00,,Wunderground v.1.15,2013-02-09 08:10:00,
2013-02-09 02:20:00,-999.9,-99.9,30.26,North,32767,-999.0,0.0,255,-99.99,,,0.00,,Wunderground v.1.15,2013-02-09 08:20:00,
2013-02-09 02:30:00,-999.9,-99.9,30.26,SSE,150,12.0,12.0,255,-99.99,,,0.00,,Wunderground v.1.15,2013-02-09 08:30:00,
2013-02-09 02:40:00,26.5,24.0,30.25,SSE,164,10.0,11.0,90,0.00,,,0.00,0,Wunderground v.1.15,2013-02-09 08:40:00,
2013-02-09 02:50:00,26.3,23.5,30.25,SSE,148,12.0,12.0,89,0.00,,,0.00,0,Wunderground v.1.15,2013-02-09 08:50:00,
2013-02-09 03:00:00,26.4,23.6,30.23,SSE,161,12.0,12.0,89,0.00,,,0.00,0,Wunderground v.1.15,2013-02-09 09:00:00,
2013-02-09 03:10:00,26.4,23.6,30.23,SSE,152,13.0,16.0,89,0.00,,,0.00,0,Wunderground v.1.15,2013-02-09 09:10:00,
2013-02-09 03:20:00,26.4,23.6,30.23,South,170,12.0,12.0,89,0.00,,,0.00,0,Wunderground v.1.15,2013-02-09 09:20:00,
2013-02-09 03:30:00,26.4,23.6,30.22,SE,146,13.0,15.0,89,0.00,,,0.00,0,Wunderground v.1.15,2013-02-09 09:30:00,
2013-02-09 03:40:00,26.4,23.6,30.22,SSE,153,14.0,14.0,89,0.00,,,0.00,0,Wunderground v.1.15,2013-02-09 09:40:00,
2013-02-09 03:50:00,26.5,23.7,30.22,SSE,147,14.0,14.0,89,0.00,,,0.00,0,Wunderground v.1.15,2013-02-09 09:50:00,
2013-02-09 04:00:00,26.6,23.8,30.21,SSE,149,12.0,13.0,89,0.00,,,0.00,0,Wunderground v.1.15,2013-02-09 10:00:00,
2013-02-09 04:10:00,26.6,23.8,30.21,SSE,153,13.0,13.0,89,0.00,,,0.00,0,Wunderground v.1.15,2013-02-09 10:10:00,
2013-02-09 04:20:00,26.6,23.8,30.20,SSE,155,13.0,17.0,89,0.00,,,0.00,0,Wunderground v.1.15,2013-02-09 10:20:00,
2013-02-09 04:30:00,26.7,23.9,30.21,SSE,167,13.0,13.0,89,0.00,,,0.00,0,Wunderground v.1.15,2013-02-09 10:30:00,
2013-02-09 04:40:00,26.7,24.2,30.21,SSE,165,12.0,13.0,90,0.00,,,0.00,0,Wunderground v.1.15,2013-02-09 10:40:00,
2013-02-09 04:50:00,26.7,23.9,30.21,SSE,158,13.0,13.0,89,0.00,,,0.00,0,Wunderground v.1.15,2013-02-09 10:50:00,
2013-02-09 05:00:00,26.8,24.3,30.21,SSE,157,12.0,13.0,90,0.00,,,0.00,0,Wunderground v.1.15,2013-02-09 11:00:00,
2013-02-09 05:10:00,26.8,24.3,30.21,SSE,165,12.0,13.0,90,0.00,,,0.00,0,Wunderground v.1.15,2013-02-09 11:10:00,
2013-02-09 05:20:00,26.8,24.3,30.20,SSE,163,13.0,13.0,90,0.00,,,0.00,0,Wunderground v.1.15,2013-02-09 11:20:00,
2013-02-09 05:30:00,26.8,24.3,30.19,South,169,13.0,13.0,90,0.00,,,0.00,0,Wunderground v.1.15,2013-02-09 11:30:00,
2013-02-09 05:40:00,26.9,24.4,30.19,South,171,12.0,14.0,90,0.00,,,0.00,0,Wunderground v.1.15,2013-02-09 11:40:00,
2013-02-09 05:50:00,27.0,24.5,30.18,SSE,150,12.0,14.0,90,0.00,,,0.00,0,Wunderground v.1.15,2013-02-09 11:50:00,
2013-02-09 06:00:00,27.0,24.5,30.17,SE,145,12.0,12.0,90,0.00,,,0.00,0,Wunderground v.1.15,2013-02-09 12:00:00,
2013-02-09 06:10:00,27.1,24.6,30.17,SE,142,12.0,12.0,90,0.00,,,0.00,0,Wunderground v.1.15,2013-02-09 12:10:00,
2013-02-09 06:20:00,27.1,24.6,30.17,SSE,153,11.0,11.0,90,0.00,,,0.00,0,Wunderground v.1.15,2013-02-09 12:20:00,
2013-02-09 06:30:00,27.2,24.7,30.17,SE,138,11.0,14.0,90,0.00,,,0.00,0,Wunderground v.1.15,2013-02-09 12:30:00,
2013-02-09 06:40:00,27.1,24.6,30.17,SE,138,10.0,10.0,90,0.00,,,0.00,0,Wunderground v.1.15,2013-02-09 12:40:00,
2013-02-09 06:50:00,27.2,24.7,30.17,South,172,10.0,10.0,90,0.00,,,0.00,0,Wunderground v.1.15,2013-02-09 12:50:00,
2013-02-09 07:00:00,27.3,24.8,30.17,SSE,161,12.0,12.0,90,0.00,,,0.00,0,Wunderground v.1.15,2013-02-09 13:00:00,
2013-02-09 07:10:00,27.3,24.8,30.17,SE,144,11.0,11.0,90,0.00,,,0.00,0,Wunderground v.1.15,2013-02-09 13:10:00,
2013-02-09 07:20:00,27.3,25.0,30.17,SE,132,11.0,11.0,91,0.00,,,0.00,0,Wunderground v.1.15,2013-02-09 13:20:00,
2013-02-09 07:30:00,27.5,25.2,30.16,SSE,159,13.0,13.0,91,0.00,,,0.00,0,Wunderground v.1.15,2013-02-09 13:30:00,
2013-02-09 07:40:00,27.5,25.2,30.16,SSE,153,12.0,16.0,91,0.00,,,0.00,0,Wunderground v.1.15,2013-02-09 13:40:00,
2013-02-09 07:50:00,27.6,25.3,30.16,SSE,158,12.0,14.0,91,0.00,,,0.00,7,Wunderground v.1.15,2013-02-09 13:50:00,
2013-02-09 08:00:00,27.8,25.8,30.16,SE,146,12.0,13.0,92,0.00,,,0.00,16,Wunderground v.1.15,2013-02-09 14:00:00,
2013-02-09 08:10:00,27.9,25.9,30.17,South,184,12.0,12.0,92,0.00,,,0.00,19,Wunderground v.1.15,2013-02-09 14:10:00,
2013-02-09 08:20:00,28.1,26.1,30.16,SE,144,12.0,12.0,92,0.00,,,0.00,23,Wunderground v.1.15,2013-02-09 14:20:00,
2013-02-09 08:30:00,28.3,26.3,30.16,SE,138,11.0,17.0,92,0.00,,,0.00,32,Wunderground v.1.15,2013-02-09 14:30:00,
2013-02-09 08:40:00,28.6,26.6,30.16,SSE,162,12.0,12.0,92,0.00,,,0.00,33,Wunderground v.1.15,2013-02-09 14:40:00,
2013-02-09 08:50:00,28.8,26.8,30.17,SSE,161,11.0,11.0,92,0.00,,,0.00,35,Wunderground v.1.15,2013-02-09 14:50:00,
2013-02-09 09:00:00,28.9,26.9,30.16,SSE,149,11.0,12.0,92,0.00,,,0.00,44,Wunderground v.1.15,2013-02-09 15:00:00,
2013-02-09 09:10:00,29.2,26.9,30.16,SE,142,11.0,11.0,91,0.00,,,0.00,54,Wunderground v.1.15,2013-02-09 15:10:00,
2013-02-09 09:20:00,29.4,27.1,30.16,South,176,12.0,14.0,91,0.00,,,0.00,54,Wunderground v.1.15,2013-02-09 15:20:00,
2013-02-09 09:30:00,29.6,27.3,30.15,SSW,192,12.0,12.0,91,0.00,,,0.00,60,Wunderground v.1.15,2013-02-09 15:30:00,
2013-02-09 09:40:00,29.8,27.5,30.15,SSE,147,13.0,13.0,91,0.00,,,0.00,63,Wunderground v.1.15,2013-02-09 15:40:00,
2013-02-09 09:50:00,29.9,27.6,30.15,SSE,154,14.0,14.0,91,0.00,,,0.00,76,Wunderground v.1.15,2013-02-09 15:50:00,
2013-02-09 10:00:00,30.3,28.0,30.14,SSE,165,13.0,17.0,91,0.00,,,0.00,95,Wunderground v.1.15,2013-02-09 16:00:00,
2013-02-09 10:10:00,30.6,28.3,30.14,SSE,161,13.0,15.0,91,0.00,,,0.00,114,Wunderground v.1.15,2013-02-09 16:10:00,
2013-02-09 10:20:00,31.0,28.4,30.14,SSE,157,15.0,15.0,90,0.00,,,0.00,113,Wunderground v.1.15,2013-02-09 16:20:00,
2013-02-09 10:30:00,31.2,28.6,30.14,SSE,164,13.0,13.0,90,0.00,,,0.00,125,Wunderground v.1.15,2013-02-09 16:30:00,
2013-02-09 10:40:00,31.4,28.8,30.14,SSE,153,14.0,17.0,90,0.00,,,0.00,135,Wunderground v.1.15,2013-02-09 16:40:00,
2013-02-09 10:50:00,31.8,29.2,30.13,SE,141,14.0,14.0,90,0.00,,,0.00,137,Wunderground v.1.15,2013-02-09 16:50:00,
2013-02-09 11:00:00,32.1,29.2,30.12,SSE,159,14.0,14.0,89,0.00,,,0.00,141,Wunderground v.1.15,2013-02-09 17:00:00,
2013-02-09 11:10:00,32.5,29.6,30.12,SSE,150,15.0,15.0,89,0.00,,,0.00,160,Wunderground v.1.15,2013-02-09 17:10:00,
2013-02-09 11:20:00,32.8,29.6,30.12,SSE,168,14.0,14.0,88,0.00,,,0.00,163,Wunderground v.1.15,2013-02-09 17:20:00,
2013-02-09 11:30:00,33.2,30.0,30.11,ESE,123,11.0,13.0,88,0.00,,,0.00,204,Wunderground v.1.15,2013-02-09 17:30:00,
2013-02-09 11:40:00,33.8,30.3,30.11,South,173,13.0,20.0,87,0.00,,,0.00,186,Wunderground v.1.15,2013-02-09 17:40:00,
2013-02-09 11:50:00,34.3,30.5,30.10,SSE,158,13.0,13.0,86,0.00,,,0.00,197,Wunderground v.1.15,2013-02-09 17:50:00,
2013-02-09 12:00:00,34.4,30.6,30.10,SSE,159,15.0,18.0,86,0.00,,,0.00,225,Wunderground v.1.15,2013-02-09 18:00:00,
2013-02-09 12:10:00,34.6,30.8,30.09,South,180,15.0,15.0,86,0.00,,,0.00,202,Wunderground v.1.15,2013-02-09 18:10:00,
2013-02-09 12:20:00,34.9,30.8,30.08,SSE,155,14.0,14.0,85,0.00,,,0.00,243,Wunderground v.1.15,2013-02-09 18:20:00,
2013-02-09 12:30:00,35.4,31.3,30.07,SE,136,14.0,14.0,85,0.00,,,0.00,260,Wunderground v.1.15,2013-02-09 18:30:00,
2013-02-09 12:40:00,35.9,31.5,30.06,East,93,14.0,14.0,84,0.00,,,0.00,376,Wunderground v.1.15,2013-02-09 18:40:00,
2013-02-09 12:50:00,36.2,31.5,30.05,SSE,157,14.0,14.0,83,0.00,,,0.00,390,Wunderground v.1.15,2013-02-09 18:50:00,
2013-02-09 13:00:00,37.2,32.2,30.05,South,179,15.0,16.0,82,0.00,,,0.00,404,Wunderground v.1.15,2013-02-09 19:00:00,
2013-02-09 13:10:00,37.0,32.0,30.04,SSE,161,15.0,15.0,82,0.00,,,0.00,420,Wunderground v.1.15,2013-02-09 19:10:00,
2013-02-09 13:20:00,37.8,32.2,30.03,SE,127,16.0,16.0,80,0.00,,,0.00,527,Wunderground v.1.15,2013-02-09 19:20:00,
2013-02-09 13:30:00,37.9,32.6,30.02,SE,143,16.0,16.0,81,0.00,,,0.00,510,Wunderground v.1.15,2013-02-09 19:30:00,
2013-02-09 13:40:00,38.3,32.7,30.02,SSE,163,16.0,21.0,80,0.00,,,0.00,519,Wunderground v.1.15,2013-02-09 19:40:00,
2013-02-09 13:50:00,39.1,33.5,30.01,SSE,161,14.0,14.0,80,0.00,,,0.00,506,Wunderground v.1.15,2013-02-09 19:50:00,
2013-02-09 14:00:00,38.7,33.1,30.01,SSE,162,14.0,16.0,80,0.00,,,0.00,276,Wunderground v.1.15,2013-02-09 20:00:00,
2013-02-09 14:10:00,39.4,33.4,30.00,SE,143,16.0,16.0,79,0.00,,,0.00,448,Wunderground v.1.15,2013-02-09 20:10:00,
2013-02-09 14:20:00,39.6,33.6,30.00,SSE,147,15.0,16.0,79,0.00,,,0.00,464,Wunderground v.1.15,2013-02-09 20:20:00,
2013-02-09 14:30:00,40.1,33.8,29.99,SSE,165,15.0,15.0,78,0.00,,,0.00,445,Wunderground v.1.15,2013-02-09 20:30:00,
2013-02-09 14:40:00,40.3,33.7,29.98,SSE,158,15.0,15.0,77,0.00,,,0.00,446,Wunderground v.1.15,2013-02-09 20:40:00,
2013-02-09 14:50:00,40.4,33.8,29.98,SE,133,14.0,15.0,77,0.00,,,0.00,325,Wunderground v.1.15,2013-02-09 20:50:00,
2013-02-09 15:00:00,40.5,33.9,29.97,SE,137,14.0,14.0,77,0.00,,,0.00,294,Wunderground v.1.15,2013-02-09 21:00:00,
2013-02-09 15:10:00,40.1,33.5,29.97,SSE,166,15.0,16.0,77,0.00,,,0.00,285,Wunderground v.1.15,2013-02-09 21:10:00,
2013-02-09 15:20:00,40.2,33.6,29.96,SSE,150,15.0,15.0,77,0.00,,,0.00,338,Wunderground v.1.15,2013-02-09 21:20:00,
2013-02-09 15:30:00,39.7,33.1,29.96,SE,142,14.0,15.0,77,0.00,,,0.00,278,Wunderground v.1.15,2013-02-09 21:30:00,
2013-02-09 15:40:00,39.7,33.4,29.95,ESE,122,16.0,16.0,78,0.00,,,0.00,197,Wunderground v.1.15,2013-02-09 21:40:00,
2013-02-09 15:50:00,39.3,33.0,29.94,SE,142,16.0,16.0,78,0.00,,,0.00,70,Wunderground v.1.15,2013-02-09 21:50:00,
2013-02-09 16:00:00,39.2,32.9,29.94,SSE,163,15.0,15.0,78,0.00,,,0.00,188,Wunderground v.1.15,2013-02-09 22:00:00,
2013-02-09 16:10:00,38.9,32.9,29.93,SE,140,15.0,15.0,79,0.00,,,0.00,76,Wunderground v.1.15,2013-02-09 22:10:00,
2013-02-09 16:20:00,38.7,32.4,29.93,SE,125,14.0,14.0,78,0.00,,,0.00,72,Wunderground v.1.15,2013-02-09 22:20:00,
2013-02-09 16:30:00,38.3,32.4,29.92,SE,131,14.0,14.0,79,0.00,,,0.00,72,Wunderground v.1.15,2013-02-09 22:30:00,
2013-02-09 16:40:00,37.9,32.3,29.92,ESE,123,14.0,14.0,80,0.00,,,0.00,58,Wunderground v.1.15,2013-02-09 22:40:00,
2013-02-09 16:50:00,37.5,31.9,29.92,ESE,122,13.0,17.0,80,0.00,,,0.00,40,Wunderground v.1.15,2013-02-09 22:50:00,
2013-02-09 17:00:00,36.6,31.6,29.92,SE,137,14.0,14.0,82,0.00,,,0.00,37,Wunderground v.1.15,2013-02-09 23:00:00,
2013-02-09 17:10:00,36.0,31.3,29.92,SSE,150,13.0,13.0,83,0.00,,,0.00,28,Wunderground v.1.15,2013-02-09 23:10:00,
2013-02-09 17:20:00,35.5,31.1,29.92,SE,136,13.0,13.0,84,0.00,,,0.00,21,Wunderground v.1.15,2013-02-09 23:20:00,
2013-02-09 17:30:00,35.1,30.8,29.92,SSE,149,12.0,12.0,84,0.00,,,0.00,12,Wunderground v.1.15,2013-02-09 23:30:00,
2013-02-09 17:40:00,34.8,30.8,29.92,SE,134,11.0,16.0,85,0.00,,,0.00,5,Wunderground v.1.15,2013-02-09 23:40:00,
2013-02-09 17:50:00,34.5,30.5,29.93,SE,128,11.0,11.0,85,0.00,,,0.00,0,Wunderground v.1.15,2013-02-09 23:50:00,
2013-02-09 18:00:00,34.1,30.4,29.93,SSE,148,11.0,11.0,86,0.00,,,0.00,0,Wunderground v.1.15,2013-02-10 00:00:00,
2013-02-09 18:10:00,34.1,30.4,29.93,SE,144,10.0,10.0,86,0.00,,,0.00,0,Wunderground v.1.15,2013-02-10 00:10:00,
2013-02-09 18:20:00,34.1,30.4,29.92,ESE,113,10.0,13.0,86,0.00,,,0.00,0,Wunderground v.1.15,2013-02-10 00:20:00,
2013-02-09 18:30:00,34.3,30.5,29.92,SE,128,11.0,11.0,86,0.00,,,0.00,0,Wunderground v.1.15,2013-02-10 00:30:00,
2013-02-09 18:40:00,34.1,30.4,29.92,SE,142,11.0,14.0,86,0.00,,,0.00,0,Wunderground v.1.15,2013-02-10 00:40:00,
2013-02-09 18:50:00,34.1,30.6,29.92,ESE,113,11.0,12.0,87,0.00,,,0.00,0,Wunderground v.1.15,2013-02-10 00:50:00,
2013-02-09 19:00:00,34.0,30.5,29.92,SE,132,11.0,11.0,87,0.00,,,0.00,0,Wunderground v.1.15,2013-02-10 01:00:00,
2013-02-09 19:10:00,33.8,30.6,29.92,SE,139,10.0,12.0,88,0.00,,,0.00,0,Wunderground v.1.15,2013-02-10 01:10:00,
2013-02-09 19:20:00,33.8,30.6,29.92,SE,146,9.0,9.0,88,0.00,,,0.00,0,Wunderground v.1.15,2013-02-10 01:20:00,
2013-02-09 19:30:00,34.1,30.6,29.92,SE,140,11.0,13.0,87,0.00,,,0.00,0,Wunderground v.1.15,2013-02-10 01:30:00,
2013-02-09 19:40:00,34.1,30.6,29.91,SE,140,11.0,11.0,87,0.00,,,0.00,0,Wunderground v.1.15,2013-02-10 01:40:00,
2013-02-09 19:50:00,33.9,30.7,29.91,SE,144,10.0,16.0,88,0.00,,,0.00,0,Wunderground v.1.15,2013-02-10 01:50:00,
2013-02-09 20:00:00,33.7,30.5,29.91,ESE,121,10.0,11.0,88,0.00,,,0.00,0,Wunderground v.1.15,2013-02-10 02:00:00,
2013-02-09 20:10:00,33.7,30.5,29.90,SE,129,10.0,10.0,88,0.00,,,0.00,0,Wunderground v.1.15,2013-02-10 02:10:00,
2013-02-09 20:20:00,33.7,30.5,29.91,ESE,121,10.0,16.0,88,0.00,,,0.00,0,Wunderground v.1.15,2013-02-10 02:20:00,
2013-02-09 20:30:00,33.6,30.4,29.90,ESE,121,11.0,15.0,88,0.00,,,0.00,0,Wunderground v.1.15,2013-02-10 02:30:00,
2013-02-09 20:40:00,33.4,30.2,29.90,SE,129,10.0,10.0,88,0.00,,,0.00,0,Wunderground v.1.15,2013-02-10 02:40:00,
2013-02-09 20:50:00,33.4,30.2,29.89,ESE,122,10.0,13.0,88,0.00,,,0.00,0,Wunderground v.1.15,2013-02-10 02:50:00,
2013-02-09 21:00:00,33.4,30.2,29.89,ESE,123,8.0,14.0,88,0.00,,,0.00,0,Wunderground v.1.15,2013-02-10 03:00:00,
2013-02-09 21:10:00,33.1,30.2,29.88,SE,144,10.0,10.0,89,0.00,,,0.00,0,Wunderground v.1.15,2013-02-10 03:10:00,
2013-02-09 21:20:00,32.9,30.0,29.88,ESE,113,9.0,9.0,89,0.00,,,0.00,0,Wunderground v.1.15,2013-02-10 03:20:00,
2013-02-09 21:30:00,32.7,29.8,29.89,SE,127,9.0,12.0,89,0.00,,,0.00,0,Wunderground v.1.15,2013-02-10 03:30:00,
2013-02-09 21:40:00,32.8,29.9,29.88,East,81,8.0,8.0,89,0.00,,,0.00,0,Wunderground v.1.15,2013-02-10 03:40:00,
2013-02-09 21:50:00,32.8,29.9,29.87,SE,124,9.0,9.0,89,0.00,,,0.00,0,Wunderground v.1.15,2013-02-10 03:50:00,
2013-02-09 22:00:00,32.9,30.0,29.86,SE,146,9.0,9.0,89,0.00,,,0.00,0,Wunderground v.1.15,2013-02-10 04:00:00,
2013-02-09 22:10:00,33.1,30.2,29.87,SE,136,11.0,17.0,89,0.00,,,0.00,0,Wunderground v.1.15,2013-02-10 04:10:00,
2013-02-09 22:20:00,33.2,30.3,29.85,SE,132,11.0,11.0,89,0.00,,,0.00,0,Wunderground v.1.15,2013-02-10 04:20:00,
2013-02-09 22:30:00,33.3,30.4,29.85,SE,128,11.0,11.0,89,0.00,,,0.00,0,Wunderground v.1.15,2013-02-10 04:30:00,
2013-02-09 22:40:00,33.3,30.4,29.85,SE,138,12.0,12.0,89,0.00,,,0.00,0,Wunderground v.1.15,2013-02-10 04:40:00,
2013-02-09 22:50:00,33.4,30.5,29.85,SE,128,12.0,12.0,89,0.00,,,0.00,0,Wunderground v.1.15,2013-02-10 04:50:00,
2013-02-09 23:00:00,33.6,30.7,29.85,SE,142,12.0,16.0,89,0.00,,,0.00,0,Wunderground v.1.15,2013-02-10 05:00:00,
2013-02-09 23:10:00,33.3,30.7,29.84,SE,130,12.0,12.0,90,0.00,,,0.00,0,Wunderground v.1.15,2013-02-10 05:10:00,
2013-02-09 23:20:00,33.2,30.9,29.84,SE,140,11.0,11.0,91,0.17,,,0.02,0,Wunderground v.1.15,2013-02-10 05:20:00,
2013-02-09 23:30:00,33.2,31.1,29.83,SE,136,11.0,11.0,92,0.07,,,0.03,0,Wunderground v.1.15,2013-02-10 05:30:00,
2013-02-09 23:40:00,33.3,31.2,29.83,SE,139,11.0,13.0,92,0.00,,,0.03,0,Wunderground v.1.15,2013-02-10 05:40:00,
2013-02-09 23:50:00,33.4,31.3,29.83,SSE,147,11.0,11.0,92,0.00,,,0.03,0,Wunderground v.1.15,2013-02-10 05:50:00,